Terminal Aerodrome Forecast
Issued by NWS

Home | Current Version | Previous Version | Text Only | Print | Product List | Glossary On
Versions: 1 2 3 4 5 6 7 8 9 10 11 12 13 14 15 16 17 18 19 20
000
FTUS45 KSLC 270531
TAFSGU
TAF
KSGU 270531Z 2706/2806 10006KT P6SM SCT080 BKN120
     FM270900 12007KT P6SM VCTS SCT070CB BKN110
     FM271300 VRB05KT P6SM FEW070 SCT120
     FM272000 25012G16KT P6SM SCT100 BKN120
     FM280200 10006KT P6SM VCSH SCT080 BKN100
      AMD LTD TO CLD VIS AND WIND=

USA.gov is the U.S. government's official web portal to all federal, state and local government web resources and services.